createdAt,value
2023-10-10T00:01:47.711Z,7.40
2023-10-10T00:04:20.090Z,7.38
2023-10-10T00:07:12.862Z,7.37
2023-10-10T00:09:56.887Z,7.36
2023-10-10T00:12:31.390Z,7.36
2023-10-10T00:15:39.048Z,7.36
2023-10-10T00:18:22.855Z,7.36
2023-10-10T00:21:28.277Z,7.36
2023-10-10T00:24:50.996Z,7.36
2023-10-10T00:27:39.110Z,7.36
2023-10-10T00:30:12.960Z,7.36
2023-10-10T00:32:45.683Z,7.36
2023-10-10T00:36:08.521Z,7.35
2023-10-10T00:38:43.222Z,7.37
2023-10-10T00:41:27.500Z,7.39
2023-10-10T00:44:38.459Z,7.41
2023-10-10T00:47:27.191Z,7.39
2023-10-10T00:50:28.343Z,7.41
2023-10-10T00:53:23.323Z,7.43
2023-10-10T00:56:17.673Z,7.44
2023-10-10T00:59:07.900Z,7.46
2023-10-10T01:01:55.919Z,7.47
2023-10-10T01:05:04.423Z,7.47
2023-10-10T01:07:42.163Z,7.47
2023-10-10T01:10:41.848Z,7.47
2023-10-10T01:13:47.473Z,7.47
2023-10-10T01:16:29.497Z,7.47
2023-10-10T01:20:05.349Z,7.44
2023-10-10T01:23:32.870Z,7.43
2023-10-10T01:26:14.710Z,7.44
2023-10-10T01:29:14.493Z,7.45
2023-10-10T01:31:54.384Z,7.45
2023-10-10T01:34:58.585Z,7.45
2023-10-10T01:38:14.910Z,7.45
2023-10-10T01:41:44.959Z,7.42
2023-10-10T01:44:26.372Z,7.38
2023-10-10T01:47:26.483Z,7.38
2023-10-10T01:49:59.224Z,7.38
2023-10-10T01:53:01.512Z,7.38
2023-10-10T01:56:13.801Z,7.39
2023-10-10T01:59:14.351Z,7.40
2023-10-10T02:02:20.090Z,7.35
2023-10-10T02:05:15.788Z,7.35
2023-10-10T02:07:56.099Z,7.35
2023-10-10T02:10:55.956Z,7.34
2023-10-10T02:13:34.371Z,7.34
2023-10-10T02:16:40.372Z,7.34
2023-10-10T02:19:38.882Z,7.35
2023-10-10T02:22:46.247Z,7.37
2023-10-10T02:25:29.565Z,7.39
2023-10-10T02:28:49.419Z,7.38
2023-10-10T02:31:58.472Z,7.40
2023-10-10T02:35:27.914Z,7.38
2023-10-10T02:38:19.174Z,7.37
2023-10-10T02:41:17.221Z,7.33
2023-10-10T02:44:17.370Z,7.31
2023-10-10T02:47:13.219Z,7.32
2023-10-10T02:49:55.010Z,7.32
2023-10-10T02:52:29.689Z,7.32
2023-10-10T02:55:51.550Z,7.34
2023-10-10T02:59:32.193Z,7.32
2023-10-10T03:02:31.201Z,7.32
2023-10-10T03:05:59.672Z,7.33
2023-10-10T03:08:37.758Z,7.32
2023-10-10T03:12:03.942Z,7.31
2023-10-10T03:15:46.578Z,7.30
2023-10-10T03:18:55.350Z,7.29
2023-10-10T03:22:17.245Z,7.24
2023-10-10T03:25:33.740Z,7.23
2023-10-10T03:28:19.802Z,7.21
2023-10-10T03:31:36.160Z,7.23
2023-10-10T03:34:35.338Z,7.21
2023-10-10T03:37:58.740Z,7.21
2023-10-10T03:41:24.260Z,7.23
2023-10-10T03:44:47.134Z,7.25
2023-10-10T03:48:08.473Z,7.26
2023-10-10T03:51:13.362Z,7.28
2023-10-10T03:54:02.687Z,7.29
2023-10-10T03:56:52.847Z,7.30
2023-10-10T03:59:42.050Z,7.31
2023-10-10T04:03:22.533Z,7.32
2023-10-10T04:06:37.533Z,7.33
2023-10-10T04:09:28.254Z,7.35
2023-10-10T04:15:51.921Z,7.37
2023-10-10T04:18:58.385Z,7.35
2023-10-10T04:21:48.146Z,7.34
2023-10-10T04:24:39.353Z,7.33
2023-10-10T04:27:31.795Z,7.32
2023-10-10T04:30:21.474Z,7.30
2023-10-10T04:33:48.882Z,7.32
2023-10-10T04:37:39.422Z,7.31
2023-10-10T04:40:56.137Z,7.30
2023-10-10T04:44:21.686Z,7.30
2023-10-10T04:47:25.132Z,7.27
2023-10-10T04:50:32.368Z,7.27
2023-10-10T04:53:56.942Z,7.27
2023-10-10T04:57:24.832Z,7.27
2023-10-10T05:00:58.121Z,7.27
2023-10-10T05:04:27.222Z,7.26
2023-10-10T05:07:41.623Z,7.27
2023-10-10T05:10:40.137Z,7.29
2023-10-10T05:13:49.576Z,7.30
2023-10-10T05:16:52.511Z,7.31
2023-10-10T05:20:00.513Z,7.35
2023-10-10T05:23:06.702Z,7.37
2023-10-10T05:26:14.764Z,7.37
2023-10-10T05:29:14.701Z,7.39
2023-10-10T05:31:47.735Z,7.41
2023-10-10T05:34:39.209Z,7.40
2023-10-10T05:37:36.448Z,7.42
2023-10-10T05:41:01.893Z,7.41
2023-10-10T05:44:23.892Z,7.43
2023-10-10T05:47:40.658Z,7.46
2023-10-10T05:50:35.413Z,7.48
2023-10-10T05:53:06.783Z,7.50
2023-10-10T05:56:33.023Z,7.53
2023-10-10T05:59:19.957Z,7.54
2023-10-10T06:02:29.199Z,7.56
2023-10-10T06:05:00.756Z,7.58
2023-10-10T06:07:33.136Z,7.56
2023-10-10T06:10:08.064Z,7.57
2023-10-10T06:12:46.303Z,7.57
2023-10-10T06:15:22.017Z,7.58
2023-10-10T06:18:09.876Z,7.59
2023-10-10T06:24:01.810Z,7.61
2023-10-10T06:27:09.997Z,7.62
2023-10-10T06:30:06.791Z,7.63
2023-10-10T06:33:19.066Z,7.66
2023-10-10T06:36:29.543Z,7.69
2023-10-10T06:39:52.464Z,7.72
2023-10-10T06:42:50.581Z,7.75
2023-10-10T06:45:51.156Z,7.77
2023-10-10T06:48:24.327Z,7.81
2023-10-10T06:50:57.386Z,7.84
2023-10-10T06:53:37.558Z,7.88
2023-10-10T06:56:32.919Z,7.95
2023-10-10T06:59:04.830Z,7.96
2023-10-10T07:02:18.450Z,7.94
2023-10-10T07:05:11.410Z,7.92
2023-10-10T07:08:13.123Z,7.94
2023-10-10T07:10:49.511Z,7.96
2023-10-10T07:13:38.149Z,7.96
2023-10-10T07:16:19.899Z,7.98
2023-10-10T07:19:34.529Z,8.00
2023-10-10T07:22:38.881Z,8.05
2023-10-10T07:25:33.528Z,8.10
2023-10-10T07:28:05.388Z,8.11
2023-10-10T07:31:22.495Z,8.13
2023-10-10T07:34:38.578Z,8.16
2023-10-10T07:37:20.269Z,8.22
2023-10-10T07:40:20.153Z,8.25
2023-10-10T07:43:22.010Z,8.27
2023-10-10T07:46:02.471Z,8.32
2023-10-10T07:49:09.613Z,8.36
2023-10-10T07:52:03.051Z,8.39
2023-10-10T07:54:45.646Z,8.43
2023-10-10T07:57:22.873Z,8.43
2023-10-10T08:00:18.495Z,8.47
2023-10-10T08:03:00.334Z,8.52
2023-10-10T08:05:35.581Z,8.51
2023-10-10T08:08:18.782Z,8.53
2023-10-10T08:11:36.472Z,8.61
2023-10-10T08:14:32.608Z,8.66
2023-10-10T08:17:26.779Z,8.67
2023-10-10T08:20:14.267Z,8.76
2023-10-10T08:23:02.367Z,8.89
2023-10-10T08:25:39.097Z,8.99
2023-10-10T08:28:25.797Z,9.01
2023-10-10T08:31:00.198Z,9.08
2023-10-10T08:33:33.415Z,9.10
2023-10-10T08:36:04.256Z,9.14
2023-10-10T08:38:43.534Z,9.18
2023-10-10T08:41:12.149Z,9.24
2023-10-10T08:43:46.496Z,9.27
2023-10-10T08:46:40.379Z,9.25
2023-10-10T08:49:24.113Z,9.28
2023-10-10T08:51:54.812Z,9.30
2023-10-10T08:54:22.616Z,9.38
2023-10-10T08:57:11.181Z,9.43
2023-10-10T08:59:43.198Z,9.44
2023-10-10T09:02:57.353Z,9.46
2023-10-10T09:05:42.713Z,9.47
2023-10-10T09:08:17.247Z,9.53
2023-10-10T09:11:12.184Z,9.52
2023-10-10T09:14:13.729Z,9.49
2023-10-10T09:17:17.766Z,9.50
2023-10-10T09:20:30.349Z,9.51
2023-10-10T09:23:16.153Z,9.56
2023-10-10T09:25:53.903Z,9.63
2023-10-10T09:29:16.820Z,9.67
2023-10-10T09:32:00.279Z,9.76
2023-10-10T09:35:03.567Z,9.86
2023-10-10T09:38:35.209Z,9.95
2023-10-10T09:41:33.688Z,10.07
2023-10-10T09:44:45.006Z,10.17
2023-10-10T09:47:33.911Z,10.28
2023-10-10T09:51:06.721Z,10.36
2023-10-10T09:59:25.996Z,10.58
2023-10-10T10:02:47.470Z,10.56
2023-10-10T10:05:29.563Z,10.63
2023-10-10T10:08:33.148Z,10.67
2023-10-10T10:11:16.438Z,10.68
2023-10-10T10:14:21.275Z,10.76
2023-10-10T10:20:31.470Z,10.88
2023-10-10T10:23:04.416Z,10.92
2023-10-10T10:25:53.360Z,10.91
2023-10-10T10:29:24.191Z,10.83
2023-10-10T10:33:16.397Z,10.83
2023-10-10T10:36:52.893Z,10.87
2023-10-10T10:40:39.933Z,10.94
2023-10-10T10:44:04.255Z,11.01
2023-10-10T10:47:29.758Z,11.05
2023-10-10T10:51:25.994Z,11.05
2023-10-10T10:55:00.312Z,11.10
2023-10-10T10:58:49.440Z,11.14
2023-10-10T11:02:24.463Z,11.26
2023-10-10T11:05:43.828Z,11.31
2023-10-10T11:09:25.350Z,11.44
2023-10-10T11:12:56.078Z,11.59
2023-10-10T11:16:50.236Z,11.70
2023-10-10T11:19:34.281Z,11.82
2023-10-10T11:22:40.975Z,11.94
2023-10-10T11:25:22.859Z,11.98
2023-10-10T11:27:56.310Z,12.09
2023-10-10T11:30:39.163Z,12.24
2023-10-10T11:33:39.000Z,12.37
2023-10-10T11:36:38.628Z,12.49
2023-10-10T11:39:32.104Z,12.53
2023-10-10T11:43:13.254Z,12.53
2023-10-10T11:46:16.256Z,12.64
2023-10-10T11:49:37.440Z,12.67
2023-10-10T11:52:22.093Z,12.55
2023-10-10T11:55:11.211Z,12.59
2023-10-10T11:57:41.042Z,12.65
2023-10-10T12:01:00.680Z,12.71
2023-10-10T12:04:23.796Z,12.73
2023-10-10T12:07:18.961Z,12.74
2023-10-10T12:10:46.265Z,12.73
2023-10-10T12:13:36.028Z,12.72
2023-10-10T12:16:51.143Z,12.72
2023-10-10T12:19:30.417Z,12.75
2023-10-10T12:23:13.175Z,12.81
2023-10-10T12:25:51.829Z,12.87
2023-10-10T12:28:47.119Z,12.92
2023-10-10T12:32:38.524Z,12.97
2023-10-10T12:36:10.150Z,13.04
2023-10-10T12:39:00.327Z,13.20
2023-10-10T12:42:00.406Z,13.29
2023-10-10T12:45:53.299Z,13.27
2023-10-10T12:49:45.854Z,13.27
2023-10-10T12:53:24.872Z,13.29
2023-10-10T12:56:48.465Z,13.37
2023-10-10T13:00:11.282Z,13.47
2023-10-10T13:03:50.485Z,13.57
2023-10-10T13:06:36.166Z,13.65
2023-10-10T13:09:33.439Z,13.72
2023-10-10T13:12:34.488Z,13.76
2023-10-10T13:16:04.999Z,13.93
2023-10-10T13:19:04.490Z,14.36
2023-10-10T13:22:07.985Z,14.76
2023-10-10T13:25:02.345Z,14.80
2023-10-10T13:28:46.471Z,14.91
2023-10-10T13:32:52.671Z,15.57
2023-10-10T13:40:13.923Z,16.62
2023-10-10T13:47:29.942Z,16.61
2023-10-10T13:50:39.785Z,16.79
2023-10-10T13:54:23.959Z,16.74
2023-10-10T14:03:59.611Z,16.81
2023-10-10T14:06:16.068Z,16.36
2023-10-10T14:10:19.206Z,15.57
2023-10-10T14:13:38.020Z,14.92
2023-10-10T14:16:24.816Z,14.63
2023-10-10T14:19:02.162Z,14.50
2023-10-10T14:22:49.563Z,14.40
2023-10-10T14:25:39.282Z,14.30
2023-10-10T14:28:39.273Z,14.29
2023-10-10T14:31:47.084Z,14.28
2023-10-10T14:35:10.671Z,14.40
2023-10-10T14:38:09.397Z,14.44
2023-10-10T14:42:08.134Z,14.43
2023-10-10T14:45:27.574Z,14.54
2023-10-10T14:48:25.059Z,14.56
2023-10-10T14:51:18.565Z,14.55
2023-10-10T14:53:54.395Z,14.50
2023-10-10T14:57:20.578Z,14.53
2023-10-10T15:00:28.617Z,14.48
2023-10-10T15:03:33.417Z,14.35
2023-10-10T15:07:14.771Z,14.24
2023-10-10T15:10:30.043Z,14.11
2023-10-10T15:12:58.699Z,14.05
2023-10-10T15:15:26.329Z,13.98
2023-10-10T15:18:01.810Z,13.92
2023-10-10T15:21:10.918Z,13.82
2023-10-10T15:23:51.862Z,13.77
2023-10-10T15:26:37.065Z,13.74
2023-10-10T15:29:41.332Z,13.70
2023-10-10T15:32:31.484Z,13.68
2023-10-10T15:35:43.027Z,13.65
2023-10-10T15:38:15.249Z,13.61
2023-10-10T15:40:52.950Z,13.60
2023-10-10T15:43:53.973Z,13.59
2023-10-10T15:46:24.382Z,13.58
2023-10-10T15:49:33.251Z,13.58
2023-10-10T15:52:05.971Z,13.58
2023-10-10T15:54:36.754Z,13.58
2023-10-10T15:57:10.967Z,13.57
2023-10-10T15:59:42.193Z,13.54
2023-10-10T16:02:14.520Z,13.52
2023-10-10T16:05:02.223Z,13.50
2023-10-10T16:08:02.833Z,13.47
2023-10-10T16:10:53.491Z,13.45
2023-10-10T16:13:36.048Z,13.43
2023-10-10T16:16:07.743Z,13.44
2023-10-10T16:18:55.602Z,13.45
2023-10-10T16:21:26.611Z,13.46
2023-10-10T16:24:06.065Z,13.46
2023-10-10T16:26:41.330Z,13.42
2023-10-10T16:29:33.815Z,13.40
2023-10-10T16:32:30.796Z,13.36
2023-10-10T16:34:58.142Z,13.34
2023-10-10T16:37:29.017Z,13.32
2023-10-10T16:39:59.422Z,13.30
2023-10-10T16:42:27.287Z,13.27
2023-10-10T16:44:55.204Z,13.25
2023-10-10T16:47:26.370Z,13.22
2023-10-10T16:50:02.823Z,13.18
2023-10-10T16:52:42.329Z,13.13
2023-10-10T16:55:35.110Z,13.07
2023-10-10T16:58:03.056Z,13.02
2023-10-10T17:00:30.456Z,12.97
2023-10-10T17:02:58.145Z,12.92
2023-10-10T17:05:36.877Z,12.88
2023-10-10T17:08:32.712Z,12.86
2023-10-10T17:11:52.429Z,12.82
2023-10-10T17:14:34.325Z,12.73
2023-10-10T17:17:14.791Z,12.68
2023-10-10T17:19:45.691Z,12.65
2023-10-10T17:22:21.377Z,12.55
2023-10-10T17:24:48.750Z,12.44
2023-10-10T17:27:19.773Z,12.32
2023-10-10T17:29:47.357Z,12.21
2023-10-10T17:32:16.347Z,12.11
2023-10-10T17:34:54.147Z,12.08
2023-10-10T17:37:35.120Z,12.13
2023-10-10T17:40:40.308Z,12.20
2023-10-10T17:43:11.138Z,12.27
2023-10-10T17:45:46.403Z,12.29
2023-10-10T17:48:31.810Z,12.30
2023-10-10T17:51:05.363Z,12.32
2023-10-10T17:53:33.094Z,12.35
2023-10-10T17:56:14.120Z,12.37
2023-10-10T17:58:55.171Z,12.39
2023-10-10T18:01:23.048Z,12.39
2023-10-10T18:03:55.290Z,12.39
2023-10-10T18:06:27.243Z,12.38
2023-10-10T18:08:56.284Z,12.38
2023-10-10T18:11:34.384Z,12.39
2023-10-10T18:14:07.728Z,12.40
2023-10-10T18:16:52.974Z,12.40
2023-10-10T18:19:21.028Z,12.38
2023-10-10T18:21:49.076Z,12.37
2023-10-10T18:24:16.645Z,12.36
2023-10-10T18:26:44.128Z,12.37
2023-10-10T18:29:16.693Z,12.38
2023-10-10T18:31:51.996Z,12.39
2023-10-10T18:34:25.743Z,12.40
2023-10-10T18:37:01.929Z,12.39
2023-10-10T18:39:38.952Z,12.40
2023-10-10T18:42:26.499Z,12.40
2023-10-10T18:45:02.832Z,12.42
2023-10-10T18:47:33.642Z,12.48
2023-10-10T18:50:00.997Z,12.52
2023-10-10T18:54:10.364Z,12.53
2023-10-10T18:57:48.696Z,12.47
2023-10-10T19:00:31.670Z,12.45
2023-10-10T19:03:51.062Z,12.42
2023-10-10T19:06:45.712Z,12.38
2023-10-10T19:14:10.408Z,12.36
2023-10-10T19:16:41.029Z,12.41
2023-10-10T19:19:08.243Z,12.45
2023-10-10T19:21:44.909Z,12.45
2023-10-10T19:24:40.382Z,12.42
2023-10-10T19:27:22.729Z,12.39
2023-10-10T19:30:07.208Z,12.38
2023-10-10T19:32:40.960Z,12.38
2023-10-10T19:35:13.631Z,12.38
2023-10-10T19:37:44.096Z,12.40
2023-10-10T19:40:27.062Z,12.42
2023-10-10T19:43:49.897Z,12.45
2023-10-10T19:46:46.393Z,12.50
2023-10-10T19:49:16.979Z,12.54
2023-10-10T19:51:49.993Z,12.54
2023-10-10T19:54:17.611Z,12.55
2023-10-10T19:56:49.424Z,12.57
2023-10-10T19:59:22.734Z,12.58
2023-10-10T20:02:15.817Z,12.57
2023-10-10T20:04:46.660Z,12.58
2023-10-10T20:07:41.852Z,12.56
2023-10-10T20:10:19.392Z,12.54
2023-10-10T20:12:56.266Z,12.55
2023-10-10T20:16:01.161Z,12.56
2023-10-10T20:18:48.564Z,12.56
2023-10-10T20:21:52.962Z,12.59
2023-10-10T20:25:08.849Z,12.63
2023-10-10T20:27:49.596Z,12.65
2023-10-10T20:30:22.789Z,12.66
2023-10-10T20:33:05.006Z,12.70
2023-10-10T20:35:45.861Z,12.77
2023-10-10T20:38:22.451Z,12.84
2023-10-10T20:40:52.287Z,12.85
2023-10-10T20:43:22.215Z,12.89
2023-10-10T20:46:05.385Z,12.92
2023-10-10T20:48:39.360Z,12.94
2023-10-10T20:51:43.488Z,12.96
2023-10-10T20:54:42.083Z,12.97
2023-10-10T20:57:27.914Z,12.97
2023-10-10T21:00:44.363Z,12.97
2023-10-10T21:04:27.238Z,12.96
2023-10-10T21:07:23.286Z,13.00
2023-10-10T21:10:15.302Z,13.00
2023-10-10T21:13:09.467Z,12.92
2023-10-10T21:15:45.364Z,12.86
2023-10-10T21:18:16.422Z,12.81
2023-10-10T21:21:00.330Z,12.77
2023-10-10T21:23:38.612Z,12.73
2023-10-10T21:26:20.271Z,12.69
2023-10-10T21:28:52.993Z,12.67
2023-10-10T21:31:23.883Z,12.66
2023-10-10T21:34:12.110Z,12.66
2023-10-10T21:36:42.871Z,12.66
2023-10-10T21:39:23.595Z,12.66
2023-10-10T21:42:16.288Z,12.66
2023-10-10T21:44:49.354Z,12.67
2023-10-10T21:47:25.385Z,12.67
2023-10-10T21:49:56.364Z,12.66
2023-10-10T21:52:24.142Z,12.68
2023-10-10T21:54:56.807Z,12.67
2023-10-10T21:57:37.561Z,12.66
2023-10-10T22:00:33.503Z,12.66
2023-10-10T22:03:53.642Z,12.64
2023-10-10T22:10:37.042Z,12.57
2023-10-10T22:13:20.591Z,12.55
2023-10-10T22:16:34.188Z,12.54
2023-10-10T22:19:23.149Z,12.50
2023-10-10T22:22:24.258Z,12.47
2023-10-10T22:25:12.054Z,12.44
2023-10-10T22:27:58.368Z,12.42
2023-10-10T22:30:48.179Z,12.38
2023-10-10T22:33:20.157Z,12.36
2023-10-10T22:36:39.524Z,12.35
2023-10-10T22:39:27.047Z,12.34
2023-10-10T22:42:32.878Z,12.32
2023-10-10T22:45:11.434Z,12.31
2023-10-10T22:47:58.810Z,12.31
2023-10-10T22:51:02.092Z,12.32
2023-10-10T22:54:11.303Z,12.31
2023-10-10T22:56:51.555Z,12.31
2023-10-10T23:00:14.057Z,12.31
2023-10-10T23:02:56.096Z,12.32
2023-10-10T23:05:59.919Z,12.33
2023-10-10T23:08:39.106Z,12.35
2023-10-10T23:11:11.792Z,12.38
2023-10-10T23:13:47.227Z,12.43
2023-10-10T23:16:20.113Z,12.47
2023-10-10T23:18:53.090Z,12.50
2023-10-10T23:21:41.924Z,12.53
2023-10-10T23:24:19.849Z,12.56
2023-10-10T23:27:16.406Z,12.59
2023-10-10T23:30:23.855Z,12.64
2023-10-10T23:33:50.997Z,12.67
2023-10-10T23:36:45.556Z,12.71
2023-10-10T23:39:51.057Z,12.74
2023-10-10T23:42:52.716Z,12.77
2023-10-10T23:45:47.148Z,12.80
2023-10-10T23:48:45.709Z,12.82
2023-10-10T23:52:06.818Z,12.85
2023-10-10T23:55:09.992Z,12.87
2023-10-10T23:58:02.987Z,12.88
